sensor_id;sensor_type;location;lat;lon;timestamp;temperature;humidity
32614;DHT22;19031;51.400;6.770;2022-10-16T00:00:34;13.00;99.90
32614;DHT22;19031;51.400;6.770;2022-10-16T00:03:01;12.90;99.90
32614;DHT22;19031;51.400;6.770;2022-10-16T00:05:27;12.90;99.90
32614;DHT22;19031;51.400;6.770;2022-10-16T00:07:52;12.90;99.90
32614;DHT22;19031;51.400;6.770;2022-10-16T00:10:18;12.90;99.90
32614;DHT22;19031;51.400;6.770;2022-10-16T00:12:43;12.80;99.90
32614;DHT22;19031;51.400;6.770;2022-10-16T00:15:09;12.80;99.90
32614;DHT22;19031;51.400;6.770;2022-10-16T00:17:35;12.70;99.90
32614;DHT22;19031;51.400;6.770;2022-10-16T00:20:00;12.70;99.90
32614;DHT22;19031;51.400;6.770;2022-10-16T00:22:26;12.60;99.90
32614;DHT22;19031;51.400;6.770;2022-10-16T00:24:52;12.60;99.90
32614;DHT22;19031;51.400;6.770;2022-10-16T00:27:17;12.60;99.90
32614;DHT22;19031;51.400;6.770;2022-10-16T00:29:43;12.50;99.90
32614;DHT22;19031;51.400;6.770;2022-10-16T00:32:09;12.60;99.90
32614;DHT22;19031;51.400;6.770;2022-10-16T00:34:34;12.50;99.90
32614;DHT22;19031;51.400;6.770;2022-10-16T00:37:00;12.50;99.90
32614;DHT22;19031;51.400;6.770;2022-10-16T00:39:26;12.50;99.90
32614;DHT22;19031;51.400;6.770;2022-10-16T00:41:51;12.40;99.90
32614;DHT22;19031;51.400;6.770;2022-10-16T00:44:46;12.50;99.90
32614;DHT22;19031;51.400;6.770;2022-10-16T00:47:34;12.50;99.90
32614;DHT22;19031;51.400;6.770;2022-10-16T00:52:30;12.50;99.90
32614;DHT22;19031;51.400;6.770;2022-10-16T00:54:57;12.50;99.90
32614;DHT22;19031;51.400;6.770;2022-10-16T00:57:24;12.60;99.90
32614;DHT22;19031;51.400;6.770;2022-10-16T00:59:50;12.50;99.90
32614;DHT22;19031;51.400;6.770;2022-10-16T01:02:17;12.50;99.90
32614;DHT22;19031;51.400;6.770;2022-10-16T01:04:51;12.50;99.90
32614;DHT22;19031;51.400;6.770;2022-10-16T01:10:57;12.50;99.90
32614;DHT22;19031;51.400;6.770;2022-10-16T01:13:29;12.50;99.90
32614;DHT22;19031;51.400;6.770;2022-10-16T01:15:59;12.50;99.90
32614;DHT22;19031;51.400;6.770;2022-10-16T01:21:22;12.40;99.90
32614;DHT22;19031;51.400;6.770;2022-10-16T01:24:08;12.40;99.90
32614;DHT22;19031;51.400;6.770;2022-10-16T01:29:20;12.30;99.90
32614;DHT22;19031;51.400;6.770;2022-10-16T01:31:50;12.30;99.90
32614;DHT22;19031;51.400;6.770;2022-10-16T01:34:22;12.30;99.90
32614;DHT22;19031;51.400;6.770;2022-10-16T01:36:53;12.30;99.90
32614;DHT22;19031;51.400;6.770;2022-10-16T01:39:24;12.40;99.90
32614;DHT22;19031;51.400;6.770;2022-10-16T01:42:01;12.50;99.90
32614;DHT22;19031;51.400;6.770;2022-10-16T01:44:32;12.60;99.90
32614;DHT22;19031;51.400;6.770;2022-10-16T01:46:58;12.70;99.90
32614;DHT22;19031;51.400;6.770;2022-10-16T01:49:27;12.70;99.90
32614;DHT22;19031;51.400;6.770;2022-10-16T01:51:58;12.80;99.90
32614;DHT22;19031;51.400;6.770;2022-10-16T01:54:30;12.90;99.90
32614;DHT22;19031;51.400;6.770;2022-10-16T01:56:57;12.90;99.90
32614;DHT22;19031;51.400;6.770;2022-10-16T01:59:25;12.80;99.90
32614;DHT22;19031;51.400;6.770;2022-10-16T02:02:00;12.90;99.90
32614;DHT22;19031;51.400;6.770;2022-10-16T02:04:36;13.00;99.90
32614;DHT22;19031;51.400;6.770;2022-10-16T02:07:02;13.10;99.90
32614;DHT22;19031;51.400;6.770;2022-10-16T02:09:30;13.00;99.90
32614;DHT22;19031;51.400;6.770;2022-10-16T02:11:57;13.00;99.90
32614;DHT22;19031;51.400;6.770;2022-10-16T02:14:25;12.90;99.90
32614;DHT22;19031;51.400;6.770;2022-10-16T02:16:51;12.90;99.90
32614;DHT22;19031;51.400;6.770;2022-10-16T02:19:18;12.80;99.90
32614;DHT22;19031;51.400;6.770;2022-10-16T02:21:58;12.80;99.90
32614;DHT22;19031;51.400;6.770;2022-10-16T02:27:14;12.70;99.90
32614;DHT22;19031;51.400;6.770;2022-10-16T02:29:47;12.70;99.90
32614;DHT22;19031;51.400;6.770;2022-10-16T02:32:17;12.80;99.90
32614;DHT22;19031;51.400;6.770;2022-10-16T02:34:46;12.90;99.90
32614;DHT22;19031;51.400;6.770;2022-10-16T02:37:13;12.90;99.90
32614;DHT22;19031;51.400;6.770;2022-10-16T02:39:40;12.90;99.90
32614;DHT22;19031;51.400;6.770;2022-10-16T02:42:11;12.90;99.90
32614;DHT22;19031;51.400;6.770;2022-10-16T02:44:37;13.00;99.90
32614;DHT22;19031;51.400;6.770;2022-10-16T02:47:02;12.90;99.90
32614;DHT22;19031;51.400;6.770;2022-10-16T02:49:28;13.00;99.90
32614;DHT22;19031;51.400;6.770;2022-10-16T02:51:53;13.00;99.90
32614;DHT22;19031;51.400;6.770;2022-10-16T02:54:19;13.00;99.90
32614;DHT22;19031;51.400;6.770;2022-10-16T02:56:45;13.00;99.90
32614;DHT22;19031;51.400;6.770;2022-10-16T02:59:10;13.00;99.90
32614;DHT22;19031;51.400;6.770;2022-10-16T03:01:36;13.00;99.90
32614;DHT22;19031;51.400;6.770;2022-10-16T03:04:02;13.00;99.90
32614;DHT22;19031;51.400;6.770;2022-10-16T03:06:27;13.10;99.90
32614;DHT22;19031;51.400;6.770;2022-10-16T03:08:53;13.00;99.90
32614;DHT22;19031;51.400;6.770;2022-10-16T03:11:18;13.10;99.90
32614;DHT22;19031;51.400;6.770;2022-10-16T03:13:44;13.10;99.90
32614;DHT22;19031;51.400;6.770;2022-10-16T03:16:09;13.10;99.90
32614;DHT22;19031;51.400;6.770;2022-10-16T03:18:35;13.00;99.90
32614;DHT22;19031;51.400;6.770;2022-10-16T03:21:01;13.00;99.90
32614;DHT22;19031;51.400;6.770;2022-10-16T03:23:27;13.10;99.90
32614;DHT22;19031;51.400;6.770;2022-10-16T03:25:53;13.10;99.90
32614;DHT22;19031;51.400;6.770;2022-10-16T03:28:19;13.00;99.90
32614;DHT22;19031;51.400;6.770;2022-10-16T03:30:44;13.10;99.90
32614;DHT22;19031;51.400;6.770;2022-10-16T03:33:10;13.00;99.90
32614;DHT22;19031;51.400;6.770;2022-10-16T03:35:36;13.00;99.90
32614;DHT22;19031;51.400;6.770;2022-10-16T03:38:01;13.00;99.90
32614;DHT22;19031;51.400;6.770;2022-10-16T03:40:27;13.00;99.90
32614;DHT22;19031;51.400;6.770;2022-10-16T03:42:53;13.00;99.90
32614;DHT22;19031;51.400;6.770;2022-10-16T03:45:22;13.00;99.90
32614;DHT22;19031;51.400;6.770;2022-10-16T03:47:48;12.90;99.90
32614;DHT22;19031;51.400;6.770;2022-10-16T03:50:13;12.90;99.90
32614;DHT22;19031;51.400;6.770;2022-10-16T03:52:39;12.90;99.90
32614;DHT22;19031;51.400;6.770;2022-10-16T03:55:05;12.80;99.90
32614;DHT22;19031;51.400;6.770;2022-10-16T03:57:31;12.80;99.90
32614;DHT22;19031;51.400;6.770;2022-10-16T03:59:56;12.80;99.90
32614;DHT22;19031;51.400;6.770;2022-10-16T04:02:22;12.80;99.90
32614;DHT22;19031;51.400;6.770;2022-10-16T04:04:48;12.70;99.90
32614;DHT22;19031;51.400;6.770;2022-10-16T04:07:13;12.80;99.90
32614;DHT22;19031;51.400;6.770;2022-10-16T04:09:39;12.70;99.90
32614;DHT22;19031;51.400;6.770;2022-10-16T04:12:05;12.70;99.90
32614;DHT22;19031;51.400;6.770;2022-10-16T04:14:30;12.70;99.90
32614;DHT22;19031;51.400;6.770;2022-10-16T04:16:56;12.70;99.90
32614;DHT22;19031;51.400;6.770;2022-10-16T04:19:21;12.60;99.90
32614;DHT22;19031;51.400;6.770;2022-10-16T04:21:47;12.70;99.90
32614;DHT22;19031;51.400;6.770;2022-10-16T04:24:12;12.70;99.90
32614;DHT22;19031;51.400;6.770;2022-10-16T04:26:38;12.70;99.90
32614;DHT22;19031;51.400;6.770;2022-10-16T04:29:04;12.60;99.90
32614;DHT22;19031;51.400;6.770;2022-10-16T04:31:29;12.60;99.90
32614;DHT22;19031;51.400;6.770;2022-10-16T04:33:55;12.60;99.90
32614;DHT22;19031;51.400;6.770;2022-10-16T04:36:21;12.60;99.90
32614;DHT22;19031;51.400;6.770;2022-10-16T04:38:46;12.50;99.90
32614;DHT22;19031;51.400;6.770;2022-10-16T04:41:12;12.60;99.90
32614;DHT22;19031;51.400;6.770;2022-10-16T04:43:37;12.50;99.90
32614;DHT22;19031;51.400;6.770;2022-10-16T04:46:03;12.50;99.90
32614;DHT22;19031;51.400;6.770;2022-10-16T04:48:30;12.50;99.90
32614;DHT22;19031;51.400;6.770;2022-10-16T04:50:56;12.50;99.90
32614;DHT22;19031;51.400;6.770;2022-10-16T04:53:21;12.40;99.90
32614;DHT22;19031;51.400;6.770;2022-10-16T04:55:47;12.50;99.90
32614;DHT22;19031;51.400;6.770;2022-10-16T04:58:13;12.50;99.90
32614;DHT22;19031;51.400;6.770;2022-10-16T05:00:38;12.50;99.90
32614;DHT22;19031;51.400;6.770;2022-10-16T05:03:04;12.40;99.90
32614;DHT22;19031;51.400;6.770;2022-10-16T05:05:33;12.50;99.90
32614;DHT22;19031;51.400;6.770;2022-10-16T05:07:59;12.60;99.90
32614;DHT22;19031;51.400;6.770;2022-10-16T05:10:24;12.60;99.90
32614;DHT22;19031;51.400;6.770;2022-10-16T05:12:50;12.60;99.90
32614;DHT22;19031;51.400;6.770;2022-10-16T05:15:17;12.60;99.90
32614;DHT22;19031;51.400;6.770;2022-10-16T05:17:42;12.60;99.90
32614;DHT22;19031;51.400;6.770;2022-10-16T05:20:08;12.60;99.90
32614;DHT22;19031;51.400;6.770;2022-10-16T05:22:34;12.60;99.90
32614;DHT22;19031;51.400;6.770;2022-10-16T05:24:59;12.70;99.90
32614;DHT22;19031;51.400;6.770;2022-10-16T05:27:25;12.70;99.90
32614;DHT22;19031;51.400;6.770;2022-10-16T05:29:50;12.60;99.90
32614;DHT22;19031;51.400;6.770;2022-10-16T05:32:17;12.60;99.90
32614;DHT22;19031;51.400;6.770;2022-10-16T05:34:44;12.60;99.90
32614;DHT22;19031;51.400;6.770;2022-10-16T05:37:10;12.60;99.90
32614;DHT22;19031;51.400;6.770;2022-10-16T05:39:37;12.60;99.90
32614;DHT22;19031;51.400;6.770;2022-10-16T05:42:03;12.60;99.90
32614;DHT22;19031;51.400;6.770;2022-10-16T05:44:28;12.70;99.90
32614;DHT22;19031;51.400;6.770;2022-10-16T05:46:54;12.60;99.90
32614;DHT22;19031;51.400;6.770;2022-10-16T05:49:20;12.60;99.90
32614;DHT22;19031;51.400;6.770;2022-10-16T05:51:45;12.70;99.90
32614;DHT22;19031;51.400;6.770;2022-10-16T05:54:11;12.70;99.90
32614;DHT22;19031;51.400;6.770;2022-10-16T05:56:37;12.60;99.90
32614;DHT22;19031;51.400;6.770;2022-10-16T05:59:05;12.70;99.90
32614;DHT22;19031;51.400;6.770;2022-10-16T06:01:32;12.60;99.90
32614;DHT22;19031;51.400;6.770;2022-10-16T06:03:58;12.70;99.90
32614;DHT22;19031;51.400;6.770;2022-10-16T06:06:25;12.70;99.90
32614;DHT22;19031;51.400;6.770;2022-10-16T06:08:53;12.60;99.90
32614;DHT22;19031;51.400;6.770;2022-10-16T06:11:30;12.60;99.90
32614;DHT22;19031;51.400;6.770;2022-10-16T06:14:00;12.60;99.90
32614;DHT22;19031;51.400;6.770;2022-10-16T06:16:28;12.60;99.90
32614;DHT22;19031;51.400;6.770;2022-10-16T06:18:54;12.60;99.90
32614;DHT22;19031;51.400;6.770;2022-10-16T06:21:23;12.60;99.90
32614;DHT22;19031;51.400;6.770;2022-10-16T06:23:53;12.60;99.90
32614;DHT22;19031;51.400;6.770;2022-10-16T06:26:22;12.70;99.90
32614;DHT22;19031;51.400;6.770;2022-10-16T06:28:48;12.60;99.90
32614;DHT22;19031;51.400;6.770;2022-10-16T06:31:14;12.60;99.90
32614;DHT22;19031;51.400;6.770;2022-10-16T06:33:40;12.70;99.90
32614;DHT22;19031;51.400;6.770;2022-10-16T06:36:11;12.60;99.90
32614;DHT22;19031;51.400;6.770;2022-10-16T06:38:37;12.70;99.90
32614;DHT22;19031;51.400;6.770;2022-10-16T06:41:04;12.70;99.90
32614;DHT22;19031;51.400;6.770;2022-10-16T06:43:31;12.70;99.90
32614;DHT22;19031;51.400;6.770;2022-10-16T06:45:58;12.80;99.90
32614;DHT22;19031;51.400;6.770;2022-10-16T06:48:25;12.80;99.90
32614;DHT22;19031;51.400;6.770;2022-10-16T06:51:11;12.80;99.90
32614;DHT22;19031;51.400;6.770;2022-10-16T06:53:40;12.90;99.90
32614;DHT22;19031;51.400;6.770;2022-10-16T06:56:12;12.90;99.90
32614;DHT22;19031;51.400;6.770;2022-10-16T06:58:38;12.90;99.90
32614;DHT22;19031;51.400;6.770;2022-10-16T07:01:04;12.90;99.90
32614;DHT22;19031;51.400;6.770;2022-10-16T07:03:30;12.80;99.90
32614;DHT22;19031;51.400;6.770;2022-10-16T07:05:55;12.90;99.90
32614;DHT22;19031;51.400;6.770;2022-10-16T07:08:21;12.90;99.90
32614;DHT22;19031;51.400;6.770;2022-10-16T07:10:47;12.90;99.90
32614;DHT22;19031;51.400;6.770;2022-10-16T07:13:13;12.80;99.90
32614;DHT22;19031;51.400;6.770;2022-10-16T07:15:40;12.80;99.90
32614;DHT22;19031;51.400;6.770;2022-10-16T07:18:06;12.90;99.90
32614;DHT22;19031;51.400;6.770;2022-10-16T07:20:32;12.90;99.90
32614;DHT22;19031;51.400;6.770;2022-10-16T07:22:58;12.90;99.90
32614;DHT22;19031;51.400;6.770;2022-10-16T07:25:23;12.80;99.90
32614;DHT22;19031;51.400;6.770;2022-10-16T07:27:49;12.90;99.90
32614;DHT22;19031;51.400;6.770;2022-10-16T07:30:15;12.80;99.90
32614;DHT22;19031;51.400;6.770;2022-10-16T07:32:40;12.90;99.90
32614;DHT22;19031;51.400;6.770;2022-10-16T07:35:06;12.80;99.90
32614;DHT22;19031;51.400;6.770;2022-10-16T07:37:32;12.90;99.90
32614;DHT22;19031;51.400;6.770;2022-10-16T07:39:57;12.90;99.90
32614;DHT22;19031;51.400;6.770;2022-10-16T07:42:23;13.00;99.90
32614;DHT22;19031;51.400;6.770;2022-10-16T07:44:48;13.00;99.90
32614;DHT22;19031;51.400;6.770;2022-10-16T07:47:14;13.10;99.90
32614;DHT22;19031;51.400;6.770;2022-10-16T07:49:39;13.20;99.90
32614;DHT22;19031;51.400;6.770;2022-10-16T07:52:05;13.20;99.90
32614;DHT22;19031;51.400;6.770;2022-10-16T07:54:31;13.30;99.90
32614;DHT22;19031;51.400;6.770;2022-10-16T07:56:56;13.40;99.90
32614;DHT22;19031;51.400;6.770;2022-10-16T07:59:22;13.70;99.90
32614;DHT22;19031;51.400;6.770;2022-10-16T08:01:49;14.60;99.90
32614;DHT22;19031;51.400;6.770;2022-10-16T08:04:15;15.80;99.90
32614;DHT22;19031;51.400;6.770;2022-10-16T08:06:41;16.90;99.90
32614;DHT22;19031;51.400;6.770;2022-10-16T08:09:07;17.70;99.90
32614;DHT22;19031;51.400;6.770;2022-10-16T08:11:33;18.50;99.90
32614;DHT22;19031;51.400;6.770;2022-10-16T08:13:58;19.10;98.50
32614;DHT22;19031;51.400;6.770;2022-10-16T08:16:24;19.90;94.20
32614;DHT22;19031;51.400;6.770;2022-10-16T08:18:50;20.30;73.60
32614;DHT22;19031;51.400;6.770;2022-10-16T08:21:21;20.40;45.70
32614;DHT22;19031;51.400;6.770;2022-10-16T08:23:49;20.90;20.10
32614;DHT22;19031;51.400;6.770;2022-10-16T08:26:15;21.50;14.30
32614;DHT22;19031;51.400;6.770;2022-10-16T08:28:40;22.10;1.00
32614;DHT22;19031;51.400;6.770;2022-10-16T08:31:12;22.20;1.00
32614;DHT22;19031;51.400;6.770;2022-10-16T08:33:39;22.20;1.00
32614;DHT22;19031;51.400;6.770;2022-10-16T08:36:06;22.00;1.00
32614;DHT22;19031;51.400;6.770;2022-10-16T08:38:32;21.80;1.00
32614;DHT22;19031;51.400;6.770;2022-10-16T08:43:43;19.90;29.30
32614;DHT22;19031;51.400;6.770;2022-10-16T08:46:30;19.00;53.90
32614;DHT22;19031;51.400;6.770;2022-10-16T08:49:03;18.30;70.40
32614;DHT22;19031;51.400;6.770;2022-10-16T08:51:35;17.90;81.10
32614;DHT22;19031;51.400;6.770;2022-10-16T08:56:57;17.30;90.10
32614;DHT22;19031;51.400;6.770;2022-10-16T08:59:26;17.10;93.00
32614;DHT22;19031;51.400;6.770;2022-10-16T09:01:52;16.80;94.20
32614;DHT22;19031;51.400;6.770;2022-10-16T09:04:49;16.70;95.20
32614;DHT22;19031;51.400;6.770;2022-10-16T09:10:16;16.50;97.90
32614;DHT22;19031;51.400;6.770;2022-10-16T09:12:51;16.40;96.60
32614;DHT22;19031;51.400;6.770;2022-10-16T09:15:34;16.40;97.20
32614;DHT22;19031;51.400;6.770;2022-10-16T09:21:18;16.40;96.30
32614;DHT22;19031;51.400;6.770;2022-10-16T09:23:43;16.50;97.70
32614;DHT22;19031;51.400;6.770;2022-10-16T09:26:11;16.60;94.40
32614;DHT22;19031;51.400;6.770;2022-10-16T09:28:38;16.70;92.20
32614;DHT22;19031;51.400;6.770;2022-10-16T09:31:03;17.10;90.30
32614;DHT22;19031;51.400;6.770;2022-10-16T09:33:33;17.60;86.40
32614;DHT22;19031;51.400;6.770;2022-10-16T09:36:03;17.90;66.40
32614;DHT22;19031;51.400;6.770;2022-10-16T09:38:32;18.50;47.30
32614;DHT22;19031;51.400;6.770;2022-10-16T09:41:13;19.10;29.40
32614;DHT22;19031;51.400;6.770;2022-10-16T09:43:42;19.70;1.00
32614;DHT22;19031;51.400;6.770;2022-10-16T09:48:56;20.40;1.00
32614;DHT22;19031;51.400;6.770;2022-10-16T09:51:29;20.70;1.00
32614;DHT22;19031;51.400;6.770;2022-10-16T09:54:15;21.00;1.00
32614;DHT22;19031;51.400;6.770;2022-10-16T09:56:41;21.00;1.00
32614;DHT22;19031;51.400;6.770;2022-10-16T09:59:16;21.30;1.00
32614;DHT22;19031;51.400;6.770;2022-10-16T10:01:53;21.40;1.00
32614;DHT22;19031;51.400;6.770;2022-10-16T10:04:22;22.00;1.00
32614;DHT22;19031;51.400;6.770;2022-10-16T10:06:57;22.20;99.90
32614;DHT22;19031;51.400;6.770;2022-10-16T10:09:24;23.00;99.90
32614;DHT22;19031;51.400;6.770;2022-10-16T10:14:38;23.60;99.90
32614;DHT22;19031;51.400;6.770;2022-10-16T10:19:55;23.50;99.90
32614;DHT22;19031;51.400;6.770;2022-10-16T10:33:29;23.10;88.40
32614;DHT22;19031;51.400;6.770;2022-10-16T10:50:13;21.20;99.90
32614;DHT22;19031;51.400;6.770;2022-10-16T10:52:56;21.80;99.90
32614;DHT22;19031;51.400;6.770;2022-10-16T10:55:30;23.20;99.90
32614;DHT22;19031;51.400;6.770;2022-10-16T10:58:15;24.10;86.30
32614;DHT22;19031;51.400;6.770;2022-10-16T11:01:24;24.80;99.90
32614;DHT22;19031;51.400;6.770;2022-10-16T11:06:48;25.80;99.90
32614;DHT22;19031;51.400;6.770;2022-10-16T11:11:52;26.00;99.90
32614;DHT22;19031;51.400;6.770;2022-10-16T11:14:26;26.20;99.90
32614;DHT22;19031;51.400;6.770;2022-10-16T11:25:02;24.80;99.90
32614;DHT22;19031;51.400;6.770;2022-10-16T11:27:47;25.00;1.00
32614;DHT22;19031;51.400;6.770;2022-10-16T11:30:23;26.00;99.90
32614;DHT22;19031;51.400;6.770;2022-10-16T11:38:29;26.20;1.00
32614;DHT22;19031;51.400;6.770;2022-10-16T11:41:01;25.10;1.00
32614;DHT22;19031;51.400;6.770;2022-10-16T11:43:38;24.70;45.40
32614;DHT22;19031;51.400;6.770;2022-10-16T11:46:17;24.90;99.90
32614;DHT22;19031;51.400;6.770;2022-10-16T11:48:50;25.00;99.90
32614;DHT22;19031;51.400;6.770;2022-10-16T11:51:20;25.50;99.90
32614;DHT22;19031;51.400;6.770;2022-10-16T11:56:41;25.60;99.90
32614;DHT22;19031;51.400;6.770;2022-10-16T11:59:36;24.40;99.90
32614;DHT22;19031;51.400;6.770;2022-10-16T12:04:54;23.90;1.00
32614;DHT22;19031;51.400;6.770;2022-10-16T12:07:27;24.80;99.90
32614;DHT22;19031;51.400;6.770;2022-10-16T12:09:57;25.70;99.90
32614;DHT22;19031;51.400;6.770;2022-10-16T12:12:28;26.10;99.90
32614;DHT22;19031;51.400;6.770;2022-10-16T12:17:43;25.90;21.20
32614;DHT22;19031;51.400;6.770;2022-10-16T12:22:50;24.90;1.00
32614;DHT22;19031;51.400;6.770;2022-10-16T12:25:22;24.30;1.00
32614;DHT22;19031;51.400;6.770;2022-10-16T12:28:16;24.00;99.40
32614;DHT22;19031;51.400;6.770;2022-10-16T12:30:52;23.50;91.10
32614;DHT22;19031;51.400;6.770;2022-10-16T12:33:27;23.30;64.00
32614;DHT22;19031;51.400;6.770;2022-10-16T12:35:53;23.10;88.40
32614;DHT22;19031;51.400;6.770;2022-10-16T12:39:05;23.10;99.90
32614;DHT22;19031;51.400;6.770;2022-10-16T12:41:09;22.80;99.90
32614;DHT22;19031;51.400;6.770;2022-10-16T12:43:36;22.70;99.90
32614;DHT22;19031;51.400;6.770;2022-10-16T12:46:23;22.50;99.90
32614;DHT22;19031;51.400;6.770;2022-10-16T12:48:49;22.90;99.90
32614;DHT22;19031;51.400;6.770;2022-10-16T12:54:04;22.80;99.90
32614;DHT22;19031;51.400;6.770;2022-10-16T13:10:01;21.80;99.90
32614;DHT22;19031;51.400;6.770;2022-10-16T13:24:12;21.00;99.90
32614;DHT22;19031;51.400;6.770;2022-10-16T13:26:41;20.70;99.90
32614;DHT22;19031;51.400;6.770;2022-10-16T13:29:09;20.60;1.00
32614;DHT22;19031;51.400;6.770;2022-10-16T13:31:38;20.40;1.00
32614;DHT22;19031;51.400;6.770;2022-10-16T13:34:05;20.30;1.00
32614;DHT22;19031;51.400;6.770;2022-10-16T13:36:43;20.30;1.00
32614;DHT22;19031;51.400;6.770;2022-10-16T13:41:38;20.50;1.00
32614;DHT22;19031;51.400;6.770;2022-10-16T13:44:04;20.60;1.00
32614;DHT22;19031;51.400;6.770;2022-10-16T13:46:30;20.50;1.00
32614;DHT22;19031;51.400;6.770;2022-10-16T13:49:05;20.50;1.00
32614;DHT22;19031;51.400;6.770;2022-10-16T13:51:32;20.40;1.00
32614;DHT22;19031;51.400;6.770;2022-10-16T13:53:58;20.50;1.00
32614;DHT22;19031;51.400;6.770;2022-10-16T13:56:32;20.50;1.00
32614;DHT22;19031;51.400;6.770;2022-10-16T13:59:06;20.60;1.00
32614;DHT22;19031;51.400;6.770;2022-10-16T14:01:33;20.70;1.00
32614;DHT22;19031;51.400;6.770;2022-10-16T14:04:08;20.80;99.90
32614;DHT22;19031;51.400;6.770;2022-10-16T14:06:35;20.80;99.90
32614;DHT22;19031;51.400;6.770;2022-10-16T14:09:06;20.80;99.90
32614;DHT22;19031;51.400;6.770;2022-10-16T14:11:33;20.70;99.90
32614;DHT22;19031;51.400;6.770;2022-10-16T14:14:00;21.00;99.90
32614;DHT22;19031;51.400;6.770;2022-10-16T14:16:29;20.90;99.90
32614;DHT22;19031;51.400;6.770;2022-10-16T14:18:58;20.80;99.90
32614;DHT22;19031;51.400;6.770;2022-10-16T14:21:25;20.80;99.90
32614;DHT22;19031;51.400;6.770;2022-10-16T14:23:52;20.60;99.90
32614;DHT22;19031;51.400;6.770;2022-10-16T14:26:21;20.50;99.90
32614;DHT22;19031;51.400;6.770;2022-10-16T14:28:48;20.50;99.90
32614;DHT22;19031;51.400;6.770;2022-10-16T14:31:24;20.30;99.90
32614;DHT22;19031;51.400;6.770;2022-10-16T14:33:50;20.30;99.90
32614;DHT22;19031;51.400;6.770;2022-10-16T14:36:17;20.10;99.90
32614;DHT22;19031;51.400;6.770;2022-10-16T14:39:00;20.10;99.90
32614;DHT22;19031;51.400;6.770;2022-10-16T14:41:28;20.20;99.90
32614;DHT22;19031;51.400;6.770;2022-10-16T14:43:56;20.10;99.90
32614;DHT22;19031;51.400;6.770;2022-10-16T14:46:35;20.00;1.00
32614;DHT22;19031;51.400;6.770;2022-10-16T14:49:15;20.00;1.00
32614;DHT22;19031;51.400;6.770;2022-10-16T14:51:43;19.90;1.00
32614;DHT22;19031;51.400;6.770;2022-10-16T14:54:11;19.90;1.00
32614;DHT22;19031;51.400;6.770;2022-10-16T14:59:17;19.80;1.00
32614;DHT22;19031;51.400;6.770;2022-10-16T15:01:45;19.70;1.00
32614;DHT22;19031;51.400;6.770;2022-10-16T15:04:12;19.70;1.00
32614;DHT22;19031;51.400;6.770;2022-10-16T15:06:38;19.60;1.00
32614;DHT22;19031;51.400;6.770;2022-10-16T15:09:03;19.60;1.00
32614;DHT22;19031;51.400;6.770;2022-10-16T15:11:32;19.50;1.00
32614;DHT22;19031;51.400;6.770;2022-10-16T15:13:57;19.40;1.00
32614;DHT22;19031;51.400;6.770;2022-10-16T15:16:23;19.40;1.00
32614;DHT22;19031;51.400;6.770;2022-10-16T15:18:49;19.30;1.00
32614;DHT22;19031;51.400;6.770;2022-10-16T15:21:27;19.20;3.50
32614;DHT22;19031;51.400;6.770;2022-10-16T15:23:53;19.10;11.20
32614;DHT22;19031;51.400;6.770;2022-10-16T15:26:19;19.00;7.60
32614;DHT22;19031;51.400;6.770;2022-10-16T15:28:44;18.90;14.30
32614;DHT22;19031;51.400;6.770;2022-10-16T15:31:10;18.80;19.60
32614;DHT22;19031;51.400;6.770;2022-10-16T15:33:35;18.70;26.10
32614;DHT22;19031;51.400;6.770;2022-10-16T15:36:02;18.70;33.90
32614;DHT22;19031;51.400;6.770;2022-10-16T15:38:28;18.60;40.10
32614;DHT22;19031;51.400;6.770;2022-10-16T15:40:55;18.60;47.40
32614;DHT22;19031;51.400;6.770;2022-10-16T15:43:21;18.50;49.10
32614;DHT22;19031;51.400;6.770;2022-10-16T15:46:02;18.40;55.60
32614;DHT22;19031;51.400;6.770;2022-10-16T15:48:29;18.30;59.50
32614;DHT22;19031;51.400;6.770;2022-10-16T15:50:55;18.20;61.80
32614;DHT22;19031;51.400;6.770;2022-10-16T15:53:21;18.20;63.80
32614;DHT22;19031;51.400;6.770;2022-10-16T15:55:46;18.10;64.90
32614;DHT22;19031;51.400;6.770;2022-10-16T15:58:12;18.00;65.80
32614;DHT22;19031;51.400;6.770;2022-10-16T16:00:37;17.90;68.10
32614;DHT22;19031;51.400;6.770;2022-10-16T16:03:03;17.80;67.90
32614;DHT22;19031;51.400;6.770;2022-10-16T16:05:29;17.70;69.20
32614;DHT22;19031;51.400;6.770;2022-10-16T16:07:55;17.60;70.90
32614;DHT22;19031;51.400;6.770;2022-10-16T16:10:21;17.60;71.40
32614;DHT22;19031;51.400;6.770;2022-10-16T16:12:47;17.60;73.80
32614;DHT22;19031;51.400;6.770;2022-10-16T16:15:18;17.60;76.40
32614;DHT22;19031;51.400;6.770;2022-10-16T16:17:43;17.40;79.20
32614;DHT22;19031;51.400;6.770;2022-10-16T16:20:10;17.30;81.20
32614;DHT22;19031;51.400;6.770;2022-10-16T16:22:35;17.30;83.30
32614;DHT22;19031;51.400;6.770;2022-10-16T16:25:01;17.20;85.10
32614;DHT22;19031;51.400;6.770;2022-10-16T16:27:27;17.10;86.90
32614;DHT22;19031;51.400;6.770;2022-10-16T16:29:55;17.00;88.80
32614;DHT22;19031;51.400;6.770;2022-10-16T16:32:21;16.90;90.20
32614;DHT22;19031;51.400;6.770;2022-10-16T16:34:47;16.90;91.30
32614;DHT22;19031;51.400;6.770;2022-10-16T16:37:12;16.80;92.20
32614;DHT22;19031;51.400;6.770;2022-10-16T16:39:38;16.70;93.10
32614;DHT22;19031;51.400;6.770;2022-10-16T16:42:04;16.60;94.00
32614;DHT22;19031;51.400;6.770;2022-10-16T16:44:31;16.50;95.10
32614;DHT22;19031;51.400;6.770;2022-10-16T16:46:57;16.50;95.70
32614;DHT22;19031;51.400;6.770;2022-10-16T16:49:23;16.40;96.10
32614;DHT22;19031;51.400;6.770;2022-10-16T16:51:48;16.40;96.50
32614;DHT22;19031;51.400;6.770;2022-10-16T16:54:14;16.30;96.80
32614;DHT22;19031;51.400;6.770;2022-10-16T16:56:40;16.20;97.20
32614;DHT22;19031;51.400;6.770;2022-10-16T16:59:17;16.10;98.00
32614;DHT22;19031;51.400;6.770;2022-10-16T17:01:43;16.10;99.00
32614;DHT22;19031;51.400;6.770;2022-10-16T17:04:09;16.00;99.10
32614;DHT22;19031;51.400;6.770;2022-10-16T17:06:36;16.00;99.50
32614;DHT22;19031;51.400;6.770;2022-10-16T17:09:05;15.90;99.90
32614;DHT22;19031;51.400;6.770;2022-10-16T17:11:39;15.90;99.90
32614;DHT22;19031;51.400;6.770;2022-10-16T17:14:06;15.90;99.90
32614;DHT22;19031;51.400;6.770;2022-10-16T17:16:34;15.70;99.90
32614;DHT22;19031;51.400;6.770;2022-10-16T17:19:09;15.80;99.90
32614;DHT22;19031;51.400;6.770;2022-10-16T17:21:35;15.70;99.90
32614;DHT22;19031;51.400;6.770;2022-10-16T17:24:01;15.70;99.90
32614;DHT22;19031;51.400;6.770;2022-10-16T17:26:27;15.70;99.90
32614;DHT22;19031;51.400;6.770;2022-10-16T17:28:56;15.80;99.90
32614;DHT22;19031;51.400;6.770;2022-10-16T17:31:24;15.80;99.90
32614;DHT22;19031;51.400;6.770;2022-10-16T17:33:50;15.90;99.90
32614;DHT22;19031;51.400;6.770;2022-10-16T17:36:16;15.80;99.90
32614;DHT22;19031;51.400;6.770;2022-10-16T17:38:43;15.70;99.90
32614;DHT22;19031;51.400;6.770;2022-10-16T17:41:13;15.80;99.90
32614;DHT22;19031;51.400;6.770;2022-10-16T17:43:40;15.70;99.90